Latest Coastal Weather Observations for Tewantin

IDQ60701

Issued at 5:41 am EST Monday 24 April 2017 (issued every 10 minutes, with the page automatically refreshed every 10 minutes)

About coastal observations | Map of coastal stations | Coastal observations for QLD | Marine services | Other Formats
Station Details ID: 040908 Name: TEWANTIN RSL PARK Lat: -26.39 Lon: 153.04 Height: 6.4 m
Data from the previous 72 hours. | See also: Recent months at Tewantin
Date/Time
EST
Temp
°C
Wind Pressure Rain since
9am
mm
Weather Cloud Vis
km
Sea
Height
m
Swell
Dir  Spd
kts
Gust
kts
hPa Trend Height
m
Period
s
Dir
24/05:30am 18.8 S 4 7 1019.6 - 0.0 - - - - - - -
24/05:00am 18.9 S 5 6 1019.4 - 0.0 - - - - - - -
24/04:30am 18.9 S 4 6 1019.2 - 0.0 - - - - - - -
24/04:00am 19.2 S 6 9 1018.9 - 0.0 - - - - - - -
24/03:30am 19.1 SSW 4 9 1019.4 - 0.0 - - - - - - -
24/03:00am 19.4 S 4 5 1019.3 - 0.0 - - - - - - -
24/02:30am 19.3 S 5 7 1019.8 - 0.0 - - - - - - -
24/02:00am 19.2 SW 1 4 1019.9 - 0.0 - - - - - - -
24/01:30am 19.3 S 6 9 1019.8 - 0.0 - - - - - - -
24/01:00am 19.6 S 5 8 1020.3 - 0.0 - - - - - - -
24/12:30am 19.4 SSW 2 6 1021.0 - 0.0 - - - - - - -
24/12:00am 19.6 S 6 8 1020.6 - 0.0 - - - - - - -
 
Date/Time
EST
Temp
°C
Wind Pressure Rain since
9am
mm
Weather Cloud Vis
km
Sea
Height
m
Swell
Dir  Spd
kts
Gust
kts
hPa Trend Height
m
Period
s
Dir
23/11:30pm 19.7 SSW 5 7 1021.1 - 0.0 - - - - - - -
23/11:00pm 19.8 SSW 4 7 1021.5 - 0.0 - - - - - - -
23/10:30pm 19.5 SSW 3 5 1021.5 - 0.0 - - - - - - -
23/10:00pm 19.8 SSW 4 6 1021.6 - 0.0 - - - - - - -
23/09:30pm 19.9 SSW 4 6 1021.6 - 0.0 - - - - - - -
23/09:00pm 19.8 SSW 1 4 1021.8 - 0.0 - - - - - - -
23/08:30pm 20.1 SW 3 5 1021.6 - 0.0 - - - - - - -
23/08:00pm 20.4 SSW 4 5 1021.3 - 0.0 - - - - - - -
23/07:30pm 20.5 SSW 4 5 1021.0 - 0.0 - - - - - - -
23/07:00pm 21.0 SSW 4 5 1020.8 - 0.0 - - - - - - -
23/06:30pm 21.6 S 4 6 1020.5 - 0.0 - - - - - - -
23/06:00pm 22.0 SSE 4 7 1020.3 - 0.0 - - - - - - -
23/05:30pm 22.4 SSE 5 7 1020.2 - 0.0 - - - - - - -
23/05:00pm 23.0 SSE 5 9 1020.1 - 0.0 - - - - - - -
23/04:30pm 23.2 SE 7 10 1020.0 - 0.0 - - - - - - -
23/04:00pm 23.7 SE 7 11 1019.7 - 0.0 - - - - - - -
23/03:30pm 23.8 SE 8 13 1019.5 - 0.0 - - - - - - -
23/03:00pm 23.8 ESE 9 14 1019.4 - 0.0 - - - - - - -
23/02:30pm 24.4 SE 7 13 1019.5 - 0.0 - - - - - - -
23/02:00pm 24.2 SE 9 15 1019.7 - 0.0 - - - - - - -
23/01:30pm 24.1 SE 9 13 1019.9 - 0.0 - - - - - - -
23/01:00pm 24.7 SSE 8 13 1020.2 - 0.0 - - - - - - -
23/12:30pm 24.5 SSE 8 13 1020.5 - 0.0 - - - - - - -
23/12:00pm 24.8 SSE 9 15 1020.8 - 0.0 - - - - - - -
23/11:30am 24.3 SSE 8 13 1021.2 - 0.0 - - - - - - -
23/11:00am 24.6 SSE 7 12 1021.6 - 0.0 - - - - - - -
23/10:30am 23.7 SSE 9 15 1021.9 - 0.0 - - - - - - -
23/10:00am 23.9 SSE 7 11 1022.2 - 0.0 - - - - - - -
23/09:30am 22.4 S 7 12 1022.4 - 0.0 - - - - - - -
23/09:00am 21.6 S 9 15 1022.4 - 6.0 - - - - - - -
23/08:30am 21.2 S 7 12 1022.3 - 6.0 - - - - - - -
23/08:00am 20.3 S 6 9 1022.3 - 6.0 - - - - - - -
23/07:30am 19.5 SSW 6 10 1022.1 - 6.0 - - - - - - -
23/07:00am 18.9 S 5 7 1021.8 - 6.0 - - - - - - -
23/06:30am 18.7 S 5 8 1021.5 - 6.0 - - - - - - -
23/06:00am 18.6 S 5 7 1021.4 - 6.0 - - - - - - -
23/05:30am 18.7 S 6 8 1021.0 - 6.0 - - - - - - -
23/05:00am 18.7 S 7 11 1020.9 - 6.0 - - - - - - -
23/04:30am 18.7 S 5 6 1020.8 - 6.0 - - - - - - -
23/04:00am 18.8 S 5 8 1020.9 - 6.0 - - - - - - -
23/03:30am 19.0 S 5 8 1020.6 - 6.0 - - - - - - -
23/03:00am 19.1 S 5 8 1020.8 - 6.0 - - - - - - -
23/02:30am 19.1 S 6 9 1020.8 - 6.0 - - - - - - -
23/02:00am 18.8 SSW 5 8 1021.0 - 6.0 - - - - - - -
23/01:30am 19.0 SSW 5 8 1021.2 - 6.0 - - - - - - -
23/01:00am 18.8 SSW 4 7 1021.7 - 6.0 - - - - - - -
23/12:30am 18.9 S 6 10 1021.8 - 6.0 - - - - - - -
23/12:00am 18.8 S 6 9 1022.1 - 6.0 - - - - - - -
 
Date/Time
EST
Temp
°C
Wind Pressure Rain since
9am
mm
Weather Cloud Vis
km
Sea
Height
m
Swell
Dir  Spd
kts
Gust
kts
hPa Trend Height
m
Period
s
Dir
22/11:30pm 18.7 SSW 5 8 1022.4 - 6.0 - - - - - - -
22/11:00pm 18.8 SSW 5 7 1022.7 - 6.0 - - - - - - -
22/10:30pm 18.8 S 4 7 1022.9 - 6.0 - - - - - - -
22/10:00pm 18.7 S 5 7 1023.0 - 6.0 - - - - - - -
22/09:30pm 19.2 SSW 5 7 1023.1 - 6.0 - - - - - - -
22/09:00pm 19.5 SSW 4 6 1023.3 - 6.0 - - - - - - -
22/08:30pm 19.8 SSW 4 6 1023.3 - 6.0 - - - - - - -
22/08:00pm 20.0 SW 4 6 1023.1 - 6.0 - - - - - - -
22/07:30pm 21.5 SSE 5 8 1022.8 - 6.0 - - - - - - -
22/07:00pm 21.6 SSE 6 12 1022.6 - 6.0 - - - - - - -
22/06:30pm 21.7 SSE 5 9 1022.2 - 6.0 - - - - - - -
22/06:00pm 22.0 SE 6 10 1021.9 - 6.0 - - - - - - -
22/05:30pm 22.2 SE 6 11 1021.7 - 6.0 - - - - - - -
22/05:00pm 22.4 SE 6 10 1021.8 - 6.0 - - - - - - -
22/04:30pm 22.7 SE 7 13 1021.5 - 6.0 - - - - - - -
22/04:00pm 22.7 SE 7 13 1021.3 - 6.0 - - - - - - -
22/03:30pm 23.1 SE 9 16 1021.1 - 6.0 - - - - - - -
22/03:00pm 23.1 SE 8 16 1020.9 - 6.0 Recent precip. - - - - - -
22/02:30pm 23.1 SE 10 17 1021.1 - 6.0 - - - - - - -
22/02:00pm 23.8 SE 11 20 1020.9 - 5.8 - - - - - - -
22/01:30pm 23.6 SE 10 17 1021.1 - 5.8 - - - - - - -
22/01:00pm 22.5 SE 7 12 1021.4 - 5.8 - - - - - - -
22/12:30pm 21.7 SSE 7 10 1021.8 - 5.8 - - - - - - -
22/12:00pm 20.5 S 7 11 1022.1 - 5.8 - - - - - - -
22/11:30am 20.0 SSW 8 11 1022.5 - 5.8 - - - - - - -
22/11:00am 19.8 SSW 7 10 1023.2 - 5.8 - - - - - - -
22/10:30am 19.6 SSW 6 9 1023.5 - 5.6 - - - - - - -
22/10:00am 19.8 S 5 6 1023.8 - 4.0 - - - - - - -
22/09:30am 19.6 S 5 8 1024.0 - 0.6 - - - - - - -
22/09:00am 20.1 S 5 10 1023.8 - 1.8 Rain - - - - - -
22/08:30am 20.2 SSE 6 9 1023.7 - 1.4 - - - - - - -
22/08:00am 20.1 S 7 11 1023.4 - 0.8 - - - - - - -
22/07:30am 19.9 S 8 12 1023.0 - 0.8 - - - - - - -
22/07:00am 19.5 S 6 10 1022.9 - 0.8 - - - - - - -
22/06:30am 18.9 SSW 6 9 1022.4 - 0.8 - - - - - - -
22/06:00am 18.8 SSW 6 10 1022.1 - 0.8 Recent precip. - - - - - -
22/05:30am 18.9 S 8 12 1021.7 - 0.6 - - - - - - -
22/05:00am 19.0 SSW 7 11 1021.7 - 0.4 - - - - - - -
22/04:30am 18.8 S 6 10 1021.3 - 0.4 - - - - - - -
22/04:00am 18.5 S 6 8 1021.2 - 0.4 - - - - - - -
22/03:30am 18.6 S 6 7 1021.3 - 0.4 - - - - - - -
22/03:00am 18.6 S 5 8 1021.4 - 0.4 - - - - - - -
22/02:30am 18.8 S 6 9 1021.5 - 0.4 - - - - - - -
22/02:00am 18.8 SSW 5 8 1021.7 - 0.4 - - - - - - -
22/01:30am 19.2 SSW 3 6 1022.2 - 0.4 - - - - - - -
22/01:00am 19.2 S 6 9 1022.4 - 0.2 - - - - - - -
22/12:30am 19.0 S 5 8 1022.4 - 0.2 - - - - - - -
22/12:00am 19.1 S 5 8 1022.7 - 0.2 - - - - - - -
 
Date/Time
EST
Temp
°C
Wind Pressure Rain since
9am
mm
Weather Cloud Vis
km
Sea
Height
m
Swell
Dir  Spd
kts
Gust
kts
hPa Trend Height
m
Period
s
Dir
21/11:30pm 19.4 SSW 6 9 1022.9 - 0.2 - - - - - - -
21/11:00pm 19.2 SSW 5 8 1023.0 - 0.2 - - - - - - -
21/10:30pm 19.3 SSW 5 8 1023.2 - 0.2 - - - - - - -
21/10:00pm 19.5 SSW 5 8 1023.4 - 0.2 - - - - - - -
21/09:30pm 19.9 SSW 4 7 1023.6 - 0.2 - - - - - - -
21/09:00pm 20.1 SSW 5 8 1023.8 - 0.2 - - - - - - -
21/08:30pm 20.1 SSW 5 8 1023.7 - 0.2 - - - - - - -
21/08:00pm 20.5 S 4 7 1023.6 - 0.2 - - - - - - -
21/07:30pm 21.3 S 5 8 1023.3 - 0.2 - - - - - - -
21/07:00pm 21.7 S 6 9 1023.2 - 0.2 - - - - - - -
21/06:30pm 21.8 SSE 5 9 1022.9 - 0.2 - - - - - - -
21/06:00pm 22.1 SSE 6 11 1023.1 - 0.2 - - - - - - -
21/05:30pm 22.4 SSE 7 14 1022.7 - 0.2 - - - - - - -
21/05:00pm 22.8 SSE 7 16 1022.3 - 0.2 - - - - - - -
21/04:30pm 23.0 SE 7 14 1022.4 - 0.2 - - - - - - -
21/04:00pm 23.1 SSE 8 14 1021.9 - 0.2 - - - - - - -
21/03:30pm 23.2 SE 9 17 1021.8 - 0.2 - - - - - - -
21/03:00pm 23.5 SE 9 15 1021.9 - 0.2 - - - - - - -
21/02:30pm 23.7 SE 9 15 1022.1 - 0.2 - - - - - - -
21/02:00pm 23.7 SE 9 14 1022.0 - 0.2 - - - - - - -
21/01:30pm 23.5 SSE 9 16 1022.1 - 0.2 - - - - - - -
21/01:00pm 23.2 SSE 9 16 1022.4 - 0.2 - - - - - - -
21/12:30pm 21.9 ESE 9 13 1023.1 - 0.2 - - - - - - -
21/12:00pm 21.9 ESE 7 11 1023.3 - 0.2 Recent precip. - - - - - -
21/11:30am 23.6 SE 11 19 1023.5 - 0.0 - - - - - - -
21/11:00am 23.5 SE 8 15 1023.7 - 0.0 - - - - - - -
21/10:30am 23.8 SSE 9 16 1024.1 - 0.0 - - - - - - -
21/10:00am 24.1 SE 11 18 1024.3 - 0.0 - - - - - - -
21/09:30am 24.1 SSE 9 16 1024.5 - 0.0 - - - - - - -
21/09:00am 23.8 SSE 7 15 1024.5 - 8.0 - - - - - - -
21/08:30am 21.2 S 8 13 1024.5 - 8.0 - - - - - - -
21/08:00am 21.2 S 8 13 1024.3 - 8.0 - - - - - - -
21/07:30am 20.8 S 8 13 1024.1 - 8.0 - - - - - - -
21/07:00am 19.4 SSW 6 9 1023.9 - 8.0 - - - - - - -
21/06:30am 18.8 S 9 12 1023.4 - 8.0 - - - - - - -
21/06:00am 18.6 S 7 12 1023.0 - 8.0 - - - - - - -

Other Formats:

Comma delimited format used in spreadsheet applications
http://www.bom.gov.au/fwo/IDQ60701/IDQ60701.94570.axf

JavaScript Object Notation format (JSON) in row-major order
http://www.bom.gov.au/fwo/IDQ60701/IDQ60701.94570.json